sensor_id;sensor_type;location;lat;lon;timestamp;P1;durP1;ratioP1;P2;durP2;ratioP2
4867;SDS011;2448;48.086;10.862;2023-06-04T00:01:34;8.77;;;4.40;;
4867;SDS011;2448;48.086;10.862;2023-06-04T00:03:59;5.07;;;4.00;;
4867;SDS011;2448;48.086;10.862;2023-06-04T00:06:25;4.63;;;4.00;;
4867;SDS011;2448;48.086;10.862;2023-06-04T00:08:50;10.10;;;4.33;;
4867;SDS011;2448;48.086;10.862;2023-06-04T00:11:15;4.47;;;4.07;;
4867;SDS011;2448;48.086;10.862;2023-06-04T00:13:41;7.77;;;4.27;;
4867;SDS011;2448;48.086;10.862;2023-06-04T00:16:06;5.40;;;4.00;;
4867;SDS011;2448;48.086;10.862;2023-06-04T00:18:31;9.00;;;5.00;;
4867;SDS011;2448;48.086;10.862;2023-06-04T00:20:57;6.07;;;4.80;;
4867;SDS011;2448;48.086;10.862;2023-06-04T00:23:22;6.43;;;4.70;;
4867;SDS011;2448;48.086;10.862;2023-06-04T00:25:48;6.87;;;4.50;;
4867;SDS011;2448;48.086;10.862;2023-06-04T00:28:13;5.70;;;4.70;;
4867;SDS011;2448;48.086;10.862;2023-06-04T00:30:38;10.97;;;4.90;;
4867;SDS011;2448;48.086;10.862;2023-06-04T00:33:04;4.90;;;4.30;;
4867;SDS011;2448;48.086;10.862;2023-06-04T00:35:29;8.33;;;5.10;;
4867;SDS011;2448;48.086;10.862;2023-06-04T00:37:55;5.20;;;4.00;;
4867;SDS011;2448;48.086;10.862;2023-06-04T00:40:20;7.20;;;5.10;;
4867;SDS011;2448;48.086;10.862;2023-06-04T00:42:45;6.90;;;4.07;;
4867;SDS011;2448;48.086;10.862;2023-06-04T00:45:11;6.90;;;3.93;;
4867;SDS011;2448;48.086;10.862;2023-06-04T00:47:38;15.80;;;5.30;;
4867;SDS011;2448;48.086;10.862;2023-06-04T00:50:04;7.27;;;4.57;;
4867;SDS011;2448;48.086;10.862;2023-06-04T00:52:29;5.40;;;4.20;;
4867;SDS011;2448;48.086;10.862;2023-06-04T00:54:55;5.20;;;3.90;;
4867;SDS011;2448;48.086;10.862;2023-06-04T00:57:21;5.40;;;4.60;;
4867;SDS011;2448;48.086;10.862;2023-06-04T00:59:47;7.07;;;4.70;;
4867;SDS011;2448;48.086;10.862;2023-06-04T01:02:17;7.77;;;4.33;;
4867;SDS011;2448;48.086;10.862;2023-06-04T01:07:10;6.60;;;4.70;;
4867;SDS011;2448;48.086;10.862;2023-06-04T01:09:37;6.03;;;5.00;;
4867;SDS011;2448;48.086;10.862;2023-06-04T01:12:04;11.83;;;4.47;;
4867;SDS011;2448;48.086;10.862;2023-06-04T01:14:29;7.53;;;4.67;;
4867;SDS011;2448;48.086;10.862;2023-06-04T01:16:59;7.17;;;4.63;;
4867;SDS011;2448;48.086;10.862;2023-06-04T01:22:10;5.43;;;4.40;;
4867;SDS011;2448;48.086;10.862;2023-06-04T01:24:37;15.20;;;4.50;;
4867;SDS011;2448;48.086;10.862;2023-06-04T01:27:03;4.77;;;4.27;;
4867;SDS011;2448;48.086;10.862;2023-06-04T01:29:29;7.03;;;4.30;;
4867;SDS011;2448;48.086;10.862;2023-06-04T01:31:55;8.43;;;4.60;;
4867;SDS011;2448;48.086;10.862;2023-06-04T01:34:21;8.40;;;4.30;;
4867;SDS011;2448;48.086;10.862;2023-06-04T01:36:46;10.80;;;4.60;;
4867;SDS011;2448;48.086;10.862;2023-06-04T01:39:12;6.27;;;4.43;;
4867;SDS011;2448;48.086;10.862;2023-06-04T01:41:37;5.37;;;3.63;;
4867;SDS011;2448;48.086;10.862;2023-06-04T01:44:03;6.50;;;4.50;;
4867;SDS011;2448;48.086;10.862;2023-06-04T01:46:28;8.27;;;4.30;;
4867;SDS011;2448;48.086;10.862;2023-06-04T01:48:54;7.97;;;4.70;;
4867;SDS011;2448;48.086;10.862;2023-06-04T01:51:19;4.63;;;4.10;;
4867;SDS011;2448;48.086;10.862;2023-06-04T01:53:45;4.93;;;4.47;;
4867;SDS011;2448;48.086;10.862;2023-06-04T01:56:10;4.40;;;3.93;;
4867;SDS011;2448;48.086;10.862;2023-06-04T01:58:37;4.53;;;3.93;;
4867;SDS011;2448;48.086;10.862;2023-06-04T02:01:02;4.13;;;3.30;;
4867;SDS011;2448;48.086;10.862;2023-06-04T02:03:29;6.30;;;4.23;;
4867;SDS011;2448;48.086;10.862;2023-06-04T02:06:02;8.03;;;3.83;;
4867;SDS011;2448;48.086;10.862;2023-06-04T02:08:28;8.10;;;4.50;;
4867;SDS011;2448;48.086;10.862;2023-06-04T02:10:55;10.83;;;4.23;;
4867;SDS011;2448;48.086;10.862;2023-06-04T02:13:21;5.93;;;3.90;;
4867;SDS011;2448;48.086;10.862;2023-06-04T02:15:46;35.43;;;4.67;;
4867;SDS011;2448;48.086;10.862;2023-06-04T02:18:15;6.30;;;3.93;;
4867;SDS011;2448;48.086;10.862;2023-06-04T02:20:46;6.57;;;3.70;;
4867;SDS011;2448;48.086;10.862;2023-06-04T02:23:12;4.00;;;3.33;;
4867;SDS011;2448;48.086;10.862;2023-06-04T02:25:38;5.73;;;4.40;;
4867;SDS011;2448;48.086;10.862;2023-06-04T02:28:03;6.80;;;4.10;;
4867;SDS011;2448;48.086;10.862;2023-06-04T02:30:28;6.20;;;4.23;;
4867;SDS011;2448;48.086;10.862;2023-06-04T02:32:54;4.10;;;3.70;;
4867;SDS011;2448;48.086;10.862;2023-06-04T02:35:21;8.57;;;4.23;;
4867;SDS011;2448;48.086;10.862;2023-06-04T02:37:48;5.87;;;4.37;;
4867;SDS011;2448;48.086;10.862;2023-06-04T02:40:14;4.50;;;3.90;;
4867;SDS011;2448;48.086;10.862;2023-06-04T02:42:39;4.63;;;3.80;;
4867;SDS011;2448;48.086;10.862;2023-06-04T02:45:05;6.63;;;3.70;;
4867;SDS011;2448;48.086;10.862;2023-06-04T02:47:30;7.40;;;4.53;;
4867;SDS011;2448;48.086;10.862;2023-06-04T02:49:56;6.03;;;4.40;;
4867;SDS011;2448;48.086;10.862;2023-06-04T02:52:21;12.23;;;6.00;;
4867;SDS011;2448;48.086;10.862;2023-06-04T02:54:47;4.53;;;4.07;;
4867;SDS011;2448;48.086;10.862;2023-06-04T02:57:13;5.20;;;4.40;;
4867;SDS011;2448;48.086;10.862;2023-06-04T02:59:38;5.77;;;4.40;;
4867;SDS011;2448;48.086;10.862;2023-06-04T03:02:04;10.83;;;5.27;;
4867;SDS011;2448;48.086;10.862;2023-06-04T03:04:30;6.80;;;5.23;;
4867;SDS011;2448;48.086;10.862;2023-06-04T03:07:02;5.50;;;4.23;;
4867;SDS011;2448;48.086;10.862;2023-06-04T03:09:29;11.47;;;5.37;;
4867;SDS011;2448;48.086;10.862;2023-06-04T03:11:56;6.40;;;4.70;;
4867;SDS011;2448;48.086;10.862;2023-06-04T03:14:22;28.20;;;4.80;;
4867;SDS011;2448;48.086;10.862;2023-06-04T03:16:48;6.10;;;4.60;;
4867;SDS011;2448;48.086;10.862;2023-06-04T03:19:14;4.77;;;4.07;;
4867;SDS011;2448;48.086;10.862;2023-06-04T03:21:39;5.57;;;3.80;;
4867;SDS011;2448;48.086;10.862;2023-06-04T03:24:05;7.07;;;4.17;;
4867;SDS011;2448;48.086;10.862;2023-06-04T03:26:31;4.40;;;4.00;;
4867;SDS011;2448;48.086;10.862;2023-06-04T03:28:56;5.20;;;4.40;;
4867;SDS011;2448;48.086;10.862;2023-06-04T03:31:22;4.83;;;4.07;;
4867;SDS011;2448;48.086;10.862;2023-06-04T03:33:48;4.17;;;3.70;;
4867;SDS011;2448;48.086;10.862;2023-06-04T03:36:13;6.00;;;4.33;;
4867;SDS011;2448;48.086;10.862;2023-06-04T03:38:39;5.23;;;4.27;;
4867;SDS011;2448;48.086;10.862;2023-06-04T03:41:04;12.60;;;5.00;;
4867;SDS011;2448;48.086;10.862;2023-06-04T03:43:30;7.17;;;5.00;;
4867;SDS011;2448;48.086;10.862;2023-06-04T03:45:59;6.97;;;4.50;;
4867;SDS011;2448;48.086;10.862;2023-06-04T03:48:25;7.90;;;5.10;;
4867;SDS011;2448;48.086;10.862;2023-06-04T03:50:51;8.50;;;4.90;;
4867;SDS011;2448;48.086;10.862;2023-06-04T03:53:16;8.83;;;4.60;;
4867;SDS011;2448;48.086;10.862;2023-06-04T03:55:42;6.97;;;5.00;;
4867;SDS011;2448;48.086;10.862;2023-06-04T03:58:08;5.20;;;4.50;;
4867;SDS011;2448;48.086;10.862;2023-06-04T04:00:36;9.00;;;4.17;;
4867;SDS011;2448;48.086;10.862;2023-06-04T04:03:02;8.30;;;5.50;;
4867;SDS011;2448;48.086;10.862;2023-06-04T04:05:29;7.57;;;5.50;;
4867;SDS011;2448;48.086;10.862;2023-06-04T04:07:54;8.20;;;5.07;;
4867;SDS011;2448;48.086;10.862;2023-06-04T04:10:24;7.53;;;5.03;;
4867;SDS011;2448;48.086;10.862;2023-06-04T04:12:49;9.07;;;6.13;;
4867;SDS011;2448;48.086;10.862;2023-06-04T04:15:18;7.10;;;5.10;;
4867;SDS011;2448;48.086;10.862;2023-06-04T04:17:44;8.63;;;5.90;;
4867;SDS011;2448;48.086;10.862;2023-06-04T04:20:09;8.80;;;5.93;;
4867;SDS011;2448;48.086;10.862;2023-06-04T04:22:41;8.80;;;5.80;;
4867;SDS011;2448;48.086;10.862;2023-06-04T04:25:07;7.57;;;4.77;;
4867;SDS011;2448;48.086;10.862;2023-06-04T04:27:34;9.90;;;5.90;;
4867;SDS011;2448;48.086;10.862;2023-06-04T04:30:04;11.10;;;5.70;;
4867;SDS011;2448;48.086;10.862;2023-06-04T04:32:30;12.93;;;6.10;;
4867;SDS011;2448;48.086;10.862;2023-06-04T04:34:56;8.90;;;5.17;;
4867;SDS011;2448;48.086;10.862;2023-06-04T04:37:28;9.37;;;5.80;;
4867;SDS011;2448;48.086;10.862;2023-06-04T04:39:56;5.10;;;4.60;;
4867;SDS011;2448;48.086;10.862;2023-06-04T04:42:24;5.80;;;5.13;;
4867;SDS011;2448;48.086;10.862;2023-06-04T04:44:50;14.63;;;5.50;;
4867;SDS011;2448;48.086;10.862;2023-06-04T04:47:17;8.87;;;5.17;;
4867;SDS011;2448;48.086;10.862;2023-06-04T04:49:43;8.90;;;5.17;;
4867;SDS011;2448;48.086;10.862;2023-06-04T04:52:08;10.07;;;6.27;;
4867;SDS011;2448;48.086;10.862;2023-06-04T04:54:36;8.50;;;5.30;;
4867;SDS011;2448;48.086;10.862;2023-06-04T04:57:02;8.27;;;5.60;;
4867;SDS011;2448;48.086;10.862;2023-06-04T04:59:27;8.10;;;5.43;;
4867;SDS011;2448;48.086;10.862;2023-06-04T05:01:54;8.37;;;5.50;;
4867;SDS011;2448;48.086;10.862;2023-06-04T05:04:19;7.57;;;5.63;;
4867;SDS011;2448;48.086;10.862;2023-06-04T05:06:45;9.47;;;5.50;;
4867;SDS011;2448;48.086;10.862;2023-06-04T05:09:11;14.43;;;5.97;;
4867;SDS011;2448;48.086;10.862;2023-06-04T05:11:36;6.50;;;5.33;;
4867;SDS011;2448;48.086;10.862;2023-06-04T05:14:01;8.17;;;5.67;;
4867;SDS011;2448;48.086;10.862;2023-06-04T05:16:27;6.80;;;4.87;;
4867;SDS011;2448;48.086;10.862;2023-06-04T05:18:53;7.77;;;5.00;;
4867;SDS011;2448;48.086;10.862;2023-06-04T05:21:23;13.23;;;5.67;;
4867;SDS011;2448;48.086;10.862;2023-06-04T05:23:57;5.93;;;4.87;;
4867;SDS011;2448;48.086;10.862;2023-06-04T05:26:25;8.00;;;5.20;;
4867;SDS011;2448;48.086;10.862;2023-06-04T05:28:56;8.33;;;5.73;;
4867;SDS011;2448;48.086;10.862;2023-06-04T05:31:21;6.13;;;4.50;;
4867;SDS011;2448;48.086;10.862;2023-06-04T05:33:47;11.03;;;5.20;;
4867;SDS011;2448;48.086;10.862;2023-06-04T05:36:15;6.47;;;4.53;;
4867;SDS011;2448;48.086;10.862;2023-06-04T05:38:50;10.90;;;4.83;;
4867;SDS011;2448;48.086;10.862;2023-06-04T05:41:26;9.63;;;5.37;;
4867;SDS011;2448;48.086;10.862;2023-06-04T05:43:53;11.57;;;5.07;;
4867;SDS011;2448;48.086;10.862;2023-06-04T05:46:18;6.60;;;4.80;;
4867;SDS011;2448;48.086;10.862;2023-06-04T05:48:45;8.63;;;4.73;;
4867;SDS011;2448;48.086;10.862;2023-06-04T05:51:12;7.30;;;5.43;;
4867;SDS011;2448;48.086;10.862;2023-06-04T05:53:38;11.00;;;5.10;;
4867;SDS011;2448;48.086;10.862;2023-06-04T05:56:04;5.77;;;4.37;;
4867;SDS011;2448;48.086;10.862;2023-06-04T05:58:29;5.70;;;4.30;;
4867;SDS011;2448;48.086;10.862;2023-06-04T06:00:55;7.40;;;4.67;;
4867;SDS011;2448;48.086;10.862;2023-06-04T06:03:21;9.07;;;4.80;;
4867;SDS011;2448;48.086;10.862;2023-06-04T06:05:48;5.10;;;4.00;;
4867;SDS011;2448;48.086;10.862;2023-06-04T06:08:13;5.70;;;4.33;;
4867;SDS011;2448;48.086;10.862;2023-06-04T06:10:39;4.90;;;4.00;;
4867;SDS011;2448;48.086;10.862;2023-06-04T06:13:05;5.23;;;3.60;;
4867;SDS011;2448;48.086;10.862;2023-06-04T06:15:30;4.10;;;3.70;;
4867;SDS011;2448;48.086;10.862;2023-06-04T06:17:56;7.63;;;3.73;;
4867;SDS011;2448;48.086;10.862;2023-06-04T06:20:22;6.17;;;4.03;;
4867;SDS011;2448;48.086;10.862;2023-06-04T06:22:48;6.67;;;4.37;;
4867;SDS011;2448;48.086;10.862;2023-06-04T06:25:14;5.10;;;4.10;;
4867;SDS011;2448;48.086;10.862;2023-06-04T06:27:46;15.60;;;4.20;;
4867;SDS011;2448;48.086;10.862;2023-06-04T06:30:14;4.93;;;3.80;;
4867;SDS011;2448;48.086;10.862;2023-06-04T06:32:40;7.23;;;4.03;;
4867;SDS011;2448;48.086;10.862;2023-06-04T06:35:05;6.67;;;4.53;;
4867;SDS011;2448;48.086;10.862;2023-06-04T06:37:31;9.17;;;4.10;;
4867;SDS011;2448;48.086;10.862;2023-06-04T06:39:57;6.17;;;3.40;;
4867;SDS011;2448;48.086;10.862;2023-06-04T06:42:22;3.90;;;3.60;;
4867;SDS011;2448;48.086;10.862;2023-06-04T06:44:49;4.07;;;3.63;;
4867;SDS011;2448;48.086;10.862;2023-06-04T06:47:15;5.17;;;4.10;;
4867;SDS011;2448;48.086;10.862;2023-06-04T06:49:41;9.80;;;4.53;;
4867;SDS011;2448;48.086;10.862;2023-06-04T06:52:06;5.97;;;3.60;;
4867;SDS011;2448;48.086;10.862;2023-06-04T06:54:31;3.70;;;3.40;;
4867;SDS011;2448;48.086;10.862;2023-06-04T06:56:57;5.07;;;3.60;;
4867;SDS011;2448;48.086;10.862;2023-06-04T06:59:23;4.43;;;3.10;;
4867;SDS011;2448;48.086;10.862;2023-06-04T07:01:48;3.57;;;3.03;;
4867;SDS011;2448;48.086;10.862;2023-06-04T07:04:14;5.97;;;3.80;;
4867;SDS011;2448;48.086;10.862;2023-06-04T07:06:39;3.47;;;3.17;;
4867;SDS011;2448;48.086;10.862;2023-06-04T07:09:04;7.50;;;3.70;;
4867;SDS011;2448;48.086;10.862;2023-06-04T07:11:31;7.17;;;3.20;;
4867;SDS011;2448;48.086;10.862;2023-06-04T07:13:56;3.73;;;3.13;;
4867;SDS011;2448;48.086;10.862;2023-06-04T07:16:21;3.83;;;3.17;;
4867;SDS011;2448;48.086;10.862;2023-06-04T07:18:47;3.83;;;3.30;;
4867;SDS011;2448;48.086;10.862;2023-06-04T07:21:13;5.50;;;3.57;;
4867;SDS011;2448;48.086;10.862;2023-06-04T07:23:38;4.80;;;3.83;;
4867;SDS011;2448;48.086;10.862;2023-06-04T07:26:04;4.20;;;3.50;;
4867;SDS011;2448;48.086;10.862;2023-06-04T07:28:29;6.27;;;3.50;;
4867;SDS011;2448;48.086;10.862;2023-06-04T07:30:55;3.67;;;3.17;;
4867;SDS011;2448;48.086;10.862;2023-06-04T07:33:21;9.27;;;3.70;;
4867;SDS011;2448;48.086;10.862;2023-06-04T07:35:46;3.90;;;2.97;;
4867;SDS011;2448;48.086;10.862;2023-06-04T07:38:11;3.50;;;3.20;;
4867;SDS011;2448;48.086;10.862;2023-06-04T07:40:37;5.40;;;3.60;;
4867;SDS011;2448;48.086;10.862;2023-06-04T07:43:02;3.80;;;3.30;;
4867;SDS011;2448;48.086;10.862;2023-06-04T07:45:27;3.70;;;3.40;;
4867;SDS011;2448;48.086;10.862;2023-06-04T07:47:55;4.10;;;3.50;;
4867;SDS011;2448;48.086;10.862;2023-06-04T07:50:21;3.40;;;3.10;;
4867;SDS011;2448;48.086;10.862;2023-06-04T07:52:46;9.40;;;3.60;;
4867;SDS011;2448;48.086;10.862;2023-06-04T07:55:12;3.87;;;3.20;;
4867;SDS011;2448;48.086;10.862;2023-06-04T07:57:37;3.97;;;3.57;;
4867;SDS011;2448;48.086;10.862;2023-06-04T08:00:03;4.57;;;2.97;;
4867;SDS011;2448;48.086;10.862;2023-06-04T08:02:38;3.20;;;2.90;;
4867;SDS011;2448;48.086;10.862;2023-06-04T08:05:03;2.90;;;2.80;;
4867;SDS011;2448;48.086;10.862;2023-06-04T08:07:29;3.50;;;3.20;;
4867;SDS011;2448;48.086;10.862;2023-06-04T08:09:55;6.10;;;3.37;;
4867;SDS011;2448;48.086;10.862;2023-06-04T08:12:21;3.17;;;2.87;;
4867;SDS011;2448;48.086;10.862;2023-06-04T08:14:47;2.77;;;2.57;;
4867;SDS011;2448;48.086;10.862;2023-06-04T08:17:12;3.13;;;2.80;;
4867;SDS011;2448;48.086;10.862;2023-06-04T08:19:37;3.20;;;3.00;;
4867;SDS011;2448;48.086;10.862;2023-06-04T08:22:03;3.10;;;2.50;;
4867;SDS011;2448;48.086;10.862;2023-06-04T08:24:29;4.00;;;2.57;;
4867;SDS011;2448;48.086;10.862;2023-06-04T08:26:55;2.90;;;2.70;;
4867;SDS011;2448;48.086;10.862;2023-06-04T08:29:20;2.67;;;2.47;;
4867;SDS011;2448;48.086;10.862;2023-06-04T08:31:46;2.73;;;2.53;;
4867;SDS011;2448;48.086;10.862;2023-06-04T08:34:11;2.77;;;2.60;;
4867;SDS011;2448;48.086;10.862;2023-06-04T08:36:36;3.20;;;2.90;;
4867;SDS011;2448;48.086;10.862;2023-06-04T08:39:02;5.53;;;2.87;;
4867;SDS011;2448;48.086;10.862;2023-06-04T08:43:56;2.90;;;2.70;;
4867;SDS011;2448;48.086;10.862;2023-06-04T08:46:27;2.93;;;2.73;;
4867;SDS011;2448;48.086;10.862;2023-06-04T08:48:54;2.57;;;2.37;;
4867;SDS011;2448;48.086;10.862;2023-06-04T08:51:21;11.63;;;3.20;;
4867;SDS011;2448;48.086;10.862;2023-06-04T08:53:46;2.60;;;2.50;;
4867;SDS011;2448;48.086;10.862;2023-06-04T08:56:15;3.27;;;2.53;;
4867;SDS011;2448;48.086;10.862;2023-06-04T08:58:42;2.70;;;2.50;;
4867;SDS011;2448;48.086;10.862;2023-06-04T09:01:08;3.50;;;2.63;;
4867;SDS011;2448;48.086;10.862;2023-06-04T09:03:34;2.40;;;2.30;;
4867;SDS011;2448;48.086;10.862;2023-06-04T09:06:02;4.90;;;2.60;;
4867;SDS011;2448;48.086;10.862;2023-06-04T09:08:31;5.90;;;2.40;;
4867;SDS011;2448;48.086;10.862;2023-06-04T09:10:57;2.63;;;2.53;;
4867;SDS011;2448;48.086;10.862;2023-06-04T09:13:22;2.23;;;2.13;;
4867;SDS011;2448;48.086;10.862;2023-06-04T09:16:01;4.60;;;2.80;;
4867;SDS011;2448;48.086;10.862;2023-06-04T09:18:27;2.60;;;2.40;;
4867;SDS011;2448;48.086;10.862;2023-06-04T09:21:06;1.90;;;1.80;;
4867;SDS011;2448;48.086;10.862;2023-06-04T09:23:34;7.23;;;2.50;;
4867;SDS011;2448;48.086;10.862;2023-06-04T09:26:09;2.50;;;2.40;;
4867;SDS011;2448;48.086;10.862;2023-06-04T09:28:34;3.03;;;2.40;;
4867;SDS011;2448;48.086;10.862;2023-06-04T09:31:00;3.17;;;2.43;;
4867;SDS011;2448;48.086;10.862;2023-06-04T09:33:27;2.67;;;2.47;;
4867;SDS011;2448;48.086;10.862;2023-06-04T09:35:54;2.80;;;2.10;;
4867;SDS011;2448;48.086;10.862;2023-06-04T09:38:20;2.93;;;2.70;;
4867;SDS011;2448;48.086;10.862;2023-06-04T09:40:45;5.07;;;2.53;;
4867;SDS011;2448;48.086;10.862;2023-06-04T09:43:11;6.33;;;2.50;;
4867;SDS011;2448;48.086;10.862;2023-06-04T09:45:45;2.77;;;2.37;;
4867;SDS011;2448;48.086;10.862;2023-06-04T09:48:18;2.70;;;2.47;;
4867;SDS011;2448;48.086;10.862;2023-06-04T09:50:44;2.90;;;2.63;;
4867;SDS011;2448;48.086;10.862;2023-06-04T09:53:18;3.00;;;2.80;;
4867;SDS011;2448;48.086;10.862;2023-06-04T09:55:55;2.90;;;2.67;;
4867;SDS011;2448;48.086;10.862;2023-06-04T09:58:20;6.17;;;2.87;;
4867;SDS011;2448;48.086;10.862;2023-06-04T10:00:46;4.37;;;2.90;;
4867;SDS011;2448;48.086;10.862;2023-06-04T10:03:12;5.10;;;3.07;;
4867;SDS011;2448;48.086;10.862;2023-06-04T10:05:40;4.63;;;2.97;;
4867;SDS011;2448;48.086;10.862;2023-06-04T10:08:05;4.77;;;3.27;;
4867;SDS011;2448;48.086;10.862;2023-06-04T10:10:34;5.43;;;3.00;;
4867;SDS011;2448;48.086;10.862;2023-06-04T10:13:06;2.50;;;2.40;;
4867;SDS011;2448;48.086;10.862;2023-06-04T10:15:32;3.00;;;2.70;;
4867;SDS011;2448;48.086;10.862;2023-06-04T10:17:59;4.33;;;2.90;;
4867;SDS011;2448;48.086;10.862;2023-06-04T10:20:24;17.63;;;3.40;;
4867;SDS011;2448;48.086;10.862;2023-06-04T10:22:50;3.57;;;2.80;;
4867;SDS011;2448;48.086;10.862;2023-06-04T10:25:16;3.23;;;2.93;;
4867;SDS011;2448;48.086;10.862;2023-06-04T10:27:42;5.13;;;3.00;;
4867;SDS011;2448;48.086;10.862;2023-06-04T10:30:08;3.70;;;2.63;;
4867;SDS011;2448;48.086;10.862;2023-06-04T10:32:33;2.57;;;2.37;;
4867;SDS011;2448;48.086;10.862;2023-06-04T10:35:03;4.20;;;2.50;;
4867;SDS011;2448;48.086;10.862;2023-06-04T10:37:29;5.63;;;3.00;;
4867;SDS011;2448;48.086;10.862;2023-06-04T10:39:55;3.40;;;2.90;;
4867;SDS011;2448;48.086;10.862;2023-06-04T10:42:21;10.60;;;2.50;;
4867;SDS011;2448;48.086;10.862;2023-06-04T10:44:48;2.80;;;2.40;;
4867;SDS011;2448;48.086;10.862;2023-06-04T10:47:26;4.87;;;2.20;;
4867;SDS011;2448;48.086;10.862;2023-06-04T10:50:06;3.80;;;3.00;;
4867;SDS011;2448;48.086;10.862;2023-06-04T10:52:31;5.60;;;2.77;;
4867;SDS011;2448;48.086;10.862;2023-06-04T10:55:02;5.57;;;2.67;;
4867;SDS011;2448;48.086;10.862;2023-06-04T10:57:28;8.50;;;3.27;;
4867;SDS011;2448;48.086;10.862;2023-06-04T10:59:54;3.40;;;3.10;;
4867;SDS011;2448;48.086;10.862;2023-06-04T11:02:20;4.60;;;2.60;;
4867;SDS011;2448;48.086;10.862;2023-06-04T11:04:45;3.20;;;2.33;;
4867;SDS011;2448;48.086;10.862;2023-06-04T11:07:11;3.50;;;3.20;;
4867;SDS011;2448;48.086;10.862;2023-06-04T11:09:37;4.53;;;2.93;;
4867;SDS011;2448;48.086;10.862;2023-06-04T11:12:04;3.23;;;2.80;;
4867;SDS011;2448;48.086;10.862;2023-06-04T11:14:30;3.70;;;2.97;;
4867;SDS011;2448;48.086;10.862;2023-06-04T11:16:55;3.47;;;2.70;;
4867;SDS011;2448;48.086;10.862;2023-06-04T11:19:20;3.00;;;2.80;;
4867;SDS011;2448;48.086;10.862;2023-06-04T11:21:46;3.10;;;2.90;;
4867;SDS011;2448;48.086;10.862;2023-06-04T11:24:12;3.63;;;2.50;;
4867;SDS011;2448;48.086;10.862;2023-06-04T11:26:38;2.60;;;2.40;;
4867;SDS011;2448;48.086;10.862;2023-06-04T11:29:07;4.73;;;2.90;;
4867;SDS011;2448;48.086;10.862;2023-06-04T11:34:08;2.93;;;2.60;;
4867;SDS011;2448;48.086;10.862;2023-06-04T11:36:33;6.53;;;3.00;;
4867;SDS011;2448;48.086;10.862;2023-06-04T11:39:00;4.30;;;2.97;;
4867;SDS011;2448;48.086;10.862;2023-06-04T11:41:35;8.97;;;3.10;;
4867;SDS011;2448;48.086;10.862;2023-06-04T11:44:05;3.00;;;2.63;;
4867;SDS011;2448;48.086;10.862;2023-06-04T11:46:49;3.00;;;2.80;;
4867;SDS011;2448;48.086;10.862;2023-06-04T11:49:18;3.40;;;3.10;;
4867;SDS011;2448;48.086;10.862;2023-06-04T11:51:50;3.00;;;2.70;;
4867;SDS011;2448;48.086;10.862;2023-06-04T11:54:16;2.50;;;2.07;;
4867;SDS011;2448;48.086;10.862;2023-06-04T11:56:42;5.70;;;2.70;;
4867;SDS011;2448;48.086;10.862;2023-06-04T11:59:09;2.37;;;2.23;;
4867;SDS011;2448;48.086;10.862;2023-06-04T12:01:38;10.93;;;2.80;;
4867;SDS011;2448;48.086;10.862;2023-06-04T12:04:11;2.80;;;2.60;;
4867;SDS011;2448;48.086;10.862;2023-06-04T12:06:36;2.70;;;2.47;;
4867;SDS011;2448;48.086;10.862;2023-06-04T12:09:02;6.30;;;2.60;;
4867;SDS011;2448;48.086;10.862;2023-06-04T12:11:30;5.03;;;2.57;;
4867;SDS011;2448;48.086;10.862;2023-06-04T12:13:59;5.93;;;3.40;;
4867;SDS011;2448;48.086;10.862;2023-06-04T12:16:25;4.87;;;2.67;;
4867;SDS011;2448;48.086;10.862;2023-06-04T12:18:51;3.93;;;2.57;;
4867;SDS011;2448;48.086;10.862;2023-06-04T12:21:25;6.47;;;3.13;;
4867;SDS011;2448;48.086;10.862;2023-06-04T12:23:54;3.43;;;2.77;;
4867;SDS011;2448;48.086;10.862;2023-06-04T12:26:20;3.60;;;2.80;;
4867;SDS011;2448;48.086;10.862;2023-06-04T12:29:00;2.97;;;2.77;;
4867;SDS011;2448;48.086;10.862;2023-06-04T12:31:25;6.07;;;3.40;;
4867;SDS011;2448;48.086;10.862;2023-06-04T12:33:57;3.13;;;2.80;;
4867;SDS011;2448;48.086;10.862;2023-06-04T12:36:22;3.10;;;2.80;;
4867;SDS011;2448;48.086;10.862;2023-06-04T12:38:47;4.30;;;3.10;;
4867;SDS011;2448;48.086;10.862;2023-06-04T12:41:13;3.93;;;2.90;;
4867;SDS011;2448;48.086;10.862;2023-06-04T12:43:38;5.37;;;3.23;;
4867;SDS011;2448;48.086;10.862;2023-06-04T12:46:04;4.70;;;3.60;;
4867;SDS011;2448;48.086;10.862;2023-06-04T12:48:29;5.20;;;2.90;;
4867;SDS011;2448;48.086;10.862;2023-06-04T12:50:54;3.80;;;2.53;;
4867;SDS011;2448;48.086;10.862;2023-06-04T12:53:20;2.83;;;2.50;;
4867;SDS011;2448;48.086;10.862;2023-06-04T12:55:45;3.37;;;3.07;;
4867;SDS011;2448;48.086;10.862;2023-06-04T12:58:10;2.90;;;2.70;;
4867;SDS011;2448;48.086;10.862;2023-06-04T13:00:36;3.07;;;2.87;;
4867;SDS011;2448;48.086;10.862;2023-06-04T13:03:01;3.37;;;2.60;;
4867;SDS011;2448;48.086;10.862;2023-06-04T13:05:27;2.70;;;2.50;;
4867;SDS011;2448;48.086;10.862;2023-06-04T13:07:52;5.53;;;2.63;;
4867;SDS011;2448;48.086;10.862;2023-06-04T13:10:19;3.00;;;2.80;;
4867;SDS011;2448;48.086;10.862;2023-06-04T13:12:44;4.10;;;2.97;;
4867;SDS011;2448;48.086;10.862;2023-06-04T13:15:10;3.17;;;2.90;;
4867;SDS011;2448;48.086;10.862;2023-06-04T13:17:36;2.80;;;2.60;;
4867;SDS011;2448;48.086;10.862;2023-06-04T13:20:01;3.30;;;3.00;;
4867;SDS011;2448;48.086;10.862;2023-06-04T13:22:27;2.90;;;2.53;;
4867;SDS011;2448;48.086;10.862;2023-06-04T13:24:52;5.00;;;2.80;;
4867;SDS011;2448;48.086;10.862;2023-06-04T13:27:17;4.13;;;2.57;;
4867;SDS011;2448;48.086;10.862;2023-06-04T13:29:43;5.23;;;2.97;;
4867;SDS011;2448;48.086;10.862;2023-06-04T13:32:08;7.20;;;2.73;;
4867;SDS011;2448;48.086;10.862;2023-06-04T13:34:35;3.20;;;2.90;;
4867;SDS011;2448;48.086;10.862;2023-06-04T13:37:00;5.00;;;2.70;;
4867;SDS011;2448;48.086;10.862;2023-06-04T13:39:26;2.57;;;2.37;;
4867;SDS011;2448;48.086;10.862;2023-06-04T13:41:51;2.63;;;2.43;;
4867;SDS011;2448;48.086;10.862;2023-06-04T13:44:17;2.60;;;2.40;;
4867;SDS011;2448;48.086;10.862;2023-06-04T13:46:42;5.73;;;3.30;;
4867;SDS011;2448;48.086;10.862;2023-06-04T13:49:08;5.93;;;3.37;;
4867;SDS011;2448;48.086;10.862;2023-06-04T13:51:33;3.03;;;2.70;;
4867;SDS011;2448;48.086;10.862;2023-06-04T13:53:58;3.30;;;3.00;;
4867;SDS011;2448;48.086;10.862;2023-06-04T13:56:24;9.07;;;3.00;;
4867;SDS011;2448;48.086;10.862;2023-06-04T13:58:50;3.53;;;3.27;;
4867;SDS011;2448;48.086;10.862;2023-06-04T14:01:15;2.93;;;2.70;;
4867;SDS011;2448;48.086;10.862;2023-06-04T14:03:42;3.43;;;3.13;;
4867;SDS011;2448;48.086;10.862;2023-06-04T14:06:07;6.80;;;3.43;;
4867;SDS011;2448;48.086;10.862;2023-06-04T14:08:32;3.93;;;2.90;;
4867;SDS011;2448;48.086;10.862;2023-06-04T14:10:58;2.70;;;2.50;;
4867;SDS011;2448;48.086;10.862;2023-06-04T14:13:23;2.70;;;2.50;;
4867;SDS011;2448;48.086;10.862;2023-06-04T14:15:49;2.77;;;2.53;;
4867;SDS011;2448;48.086;10.862;2023-06-04T14:18:14;2.87;;;1.70;;
4867;SDS011;2448;48.086;10.862;2023-06-04T14:20:39;2.53;;;2.33;;
4867;SDS011;2448;48.086;10.862;2023-06-04T14:23:05;5.60;;;3.20;;
4867;SDS011;2448;48.086;10.862;2023-06-04T14:25:30;7.37;;;3.07;;
4867;SDS011;2448;48.086;10.862;2023-06-04T14:27:57;3.00;;;2.80;;
4867;SDS011;2448;48.086;10.862;2023-06-04T14:30:23;8.10;;;2.97;;
4867;SDS011;2448;48.086;10.862;2023-06-04T14:32:48;3.13;;;2.43;;
4867;SDS011;2448;48.086;10.862;2023-06-04T14:35:13;2.87;;;2.67;;
4867;SDS011;2448;48.086;10.862;2023-06-04T14:37:39;3.07;;;2.60;;
4867;SDS011;2448;48.086;10.862;2023-06-04T14:40:05;2.50;;;2.27;;
4867;SDS011;2448;48.086;10.862;2023-06-04T14:42:30;9.87;;;3.00;;
4867;SDS011;2448;48.086;10.862;2023-06-04T14:44:55;3.50;;;2.93;;
4867;SDS011;2448;48.086;10.862;2023-06-04T14:47:21;4.23;;;2.57;;
4867;SDS011;2448;48.086;10.862;2023-06-04T14:49:47;3.13;;;2.80;;
4867;SDS011;2448;48.086;10.862;2023-06-04T14:52:12;5.40;;;2.70;;
4867;SDS011;2448;48.086;10.862;2023-06-04T14:54:38;2.90;;;2.53;;
4867;SDS011;2448;48.086;10.862;2023-06-04T14:57:03;8.17;;;2.53;;
4867;SDS011;2448;48.086;10.862;2023-06-04T14:59:29;7.20;;;2.87;;
4867;SDS011;2448;48.086;10.862;2023-06-04T15:01:54;11.00;;;2.93;;
4867;SDS011;2448;48.086;10.862;2023-06-04T15:04:20;3.10;;;2.80;;
4867;SDS011;2448;48.086;10.862;2023-06-04T15:06:45;3.20;;;2.90;;